sensor_id;sensor_type;location;lat;lon;timestamp;temperature;humidity
42031;DHT22;27709;52.036;5.906;2024-03-29T00:02:08;10.40;93.20
42031;DHT22;27709;52.036;5.906;2024-03-29T00:04:33;10.40;93.30
42031;DHT22;27709;52.036;5.906;2024-03-29T00:06:59;10.50;93.40
42031;DHT22;27709;52.036;5.906;2024-03-29T00:09:25;10.50;93.40
42031;DHT22;27709;52.036;5.906;2024-03-29T00:11:50;10.40;93.50
42031;DHT22;27709;52.036;5.906;2024-03-29T00:14:16;10.40;93.50
42031;DHT22;27709;52.036;5.906;2024-03-29T00:16:42;10.40;93.50
42031;DHT22;27709;52.036;5.906;2024-03-29T00:19:09;10.40;93.60
42031;DHT22;27709;52.036;5.906;2024-03-29T00:21:34;10.30;93.50
42031;DHT22;27709;52.036;5.906;2024-03-29T00:24:00;10.30;93.50
42031;DHT22;27709;52.036;5.906;2024-03-29T00:26:27;10.30;93.60
42031;DHT22;27709;52.036;5.906;2024-03-29T00:28:52;10.30;93.80
42031;DHT22;27709;52.036;5.906;2024-03-29T00:31:18;10.20;93.90
42031;DHT22;27709;52.036;5.906;2024-03-29T00:33:43;10.20;93.90
42031;DHT22;27709;52.036;5.906;2024-03-29T00:36:09;10.20;93.90
42031;DHT22;27709;52.036;5.906;2024-03-29T00:38:35;10.20;94.20
42031;DHT22;27709;52.036;5.906;2024-03-29T00:41:00;10.20;94.10
42031;DHT22;27709;52.036;5.906;2024-03-29T00:43:26;10.20;94.00
42031;DHT22;27709;52.036;5.906;2024-03-29T00:45:57;10.20;94.00
42031;DHT22;27709;52.036;5.906;2024-03-29T00:48:23;10.20;93.90
42031;DHT22;27709;52.036;5.906;2024-03-29T00:50:50;10.20;93.80
42031;DHT22;27709;52.036;5.906;2024-03-29T00:53:15;10.20;93.70
42031;DHT22;27709;52.036;5.906;2024-03-29T00:55:41;10.30;93.90
42031;DHT22;27709;52.036;5.906;2024-03-29T00:58:06;10.20;93.80
42031;DHT22;27709;52.036;5.906;2024-03-29T01:00:34;10.30;94.10
42031;DHT22;27709;52.036;5.906;2024-03-29T01:03:00;10.30;93.80
42031;DHT22;27709;52.036;5.906;2024-03-29T01:05:26;10.40;93.90
42031;DHT22;27709;52.036;5.906;2024-03-29T01:07:55;10.40;93.60
42031;DHT22;27709;52.036;5.906;2024-03-29T01:10:31;10.40;93.60
42031;DHT22;27709;52.036;5.906;2024-03-29T01:12:57;10.40;93.50
42031;DHT22;27709;52.036;5.906;2024-03-29T01:15:22;10.40;93.20
42031;DHT22;27709;52.036;5.906;2024-03-29T01:17:48;10.50;93.20
42031;DHT22;27709;52.036;5.906;2024-03-29T01:20:13;10.50;93.30
42031;DHT22;27709;52.036;5.906;2024-03-29T01:22:39;10.50;93.10
42031;DHT22;27709;52.036;5.906;2024-03-29T01:25:04;10.40;93.00
42031;DHT22;27709;52.036;5.906;2024-03-29T01:27:39;10.40;93.00
42031;DHT22;27709;52.036;5.906;2024-03-29T01:30:06;10.40;92.90
42031;DHT22;27709;52.036;5.906;2024-03-29T01:32:33;10.40;93.10
42031;DHT22;27709;52.036;5.906;2024-03-29T01:35:01;10.40;93.20
42031;DHT22;27709;52.036;5.906;2024-03-29T01:37:26;10.40;93.00
42031;DHT22;27709;52.036;5.906;2024-03-29T01:39:52;10.40;93.10
42031;DHT22;27709;52.036;5.906;2024-03-29T01:42:18;10.40;93.10
42031;DHT22;27709;52.036;5.906;2024-03-29T01:44:43;10.40;93.10
42031;DHT22;27709;52.036;5.906;2024-03-29T01:47:09;10.40;93.10
42031;DHT22;27709;52.036;5.906;2024-03-29T01:49:35;10.40;93.10
42031;DHT22;27709;52.036;5.906;2024-03-29T01:52:01;10.40;93.20
42031;DHT22;27709;52.036;5.906;2024-03-29T01:54:28;10.40;93.10
42031;DHT22;27709;52.036;5.906;2024-03-29T01:56:54;10.40;93.20
42031;DHT22;27709;52.036;5.906;2024-03-29T01:59:20;10.40;93.30
42031;DHT22;27709;52.036;5.906;2024-03-29T02:01:46;10.30;93.20
42031;DHT22;27709;52.036;5.906;2024-03-29T02:04:12;10.30;93.20
42031;DHT22;27709;52.036;5.906;2024-03-29T02:06:38;10.30;93.20
42031;DHT22;27709;52.036;5.906;2024-03-29T02:09:14;10.30;93.30
42031;DHT22;27709;52.036;5.906;2024-03-29T02:11:41;10.20;93.40
42031;DHT22;27709;52.036;5.906;2024-03-29T02:14:07;10.20;93.50
42031;DHT22;27709;52.036;5.906;2024-03-29T02:16:34;10.10;93.60
42031;DHT22;27709;52.036;5.906;2024-03-29T02:19:03;10.10;93.70
42031;DHT22;27709;52.036;5.906;2024-03-29T02:21:32;10.10;93.80
42031;DHT22;27709;52.036;5.906;2024-03-29T02:24:07;10.00;93.80
42031;DHT22;27709;52.036;5.906;2024-03-29T02:26:33;10.00;94.00
42031;DHT22;27709;52.036;5.906;2024-03-29T02:29:07;10.00;94.00
42031;DHT22;27709;52.036;5.906;2024-03-29T02:31:35;10.10;94.10
42031;DHT22;27709;52.036;5.906;2024-03-29T02:34:00;10.00;94.10
42031;DHT22;27709;52.036;5.906;2024-03-29T02:36:26;10.00;94.10
42031;DHT22;27709;52.036;5.906;2024-03-29T02:38:52;10.10;94.20
42031;DHT22;27709;52.036;5.906;2024-03-29T02:41:18;10.00;94.10
42031;DHT22;27709;52.036;5.906;2024-03-29T02:43:44;10.10;94.30
42031;DHT22;27709;52.036;5.906;2024-03-29T02:46:09;10.10;94.20
42031;DHT22;27709;52.036;5.906;2024-03-29T02:48:35;10.10;94.30
42031;DHT22;27709;52.036;5.906;2024-03-29T02:51:01;10.10;94.10
42031;DHT22;27709;52.036;5.906;2024-03-29T02:53:26;10.10;93.80
42031;DHT22;27709;52.036;5.906;2024-03-29T02:55:52;10.20;93.80
42031;DHT22;27709;52.036;5.906;2024-03-29T02:58:20;10.20;93.80
42031;DHT22;27709;52.036;5.906;2024-03-29T03:00:46;10.30;94.00
42031;DHT22;27709;52.036;5.906;2024-03-29T03:03:15;10.30;93.60
42031;DHT22;27709;52.036;5.906;2024-03-29T03:05:54;10.40;93.70
42031;DHT22;27709;52.036;5.906;2024-03-29T03:08:20;10.40;93.60
42031;DHT22;27709;52.036;5.906;2024-03-29T03:11:09;10.50;93.30
42031;DHT22;27709;52.036;5.906;2024-03-29T03:13:38;10.50;93.40
42031;DHT22;27709;52.036;5.906;2024-03-29T03:16:03;10.60;93.20
42031;DHT22;27709;52.036;5.906;2024-03-29T03:18:29;10.60;93.20
42031;DHT22;27709;52.036;5.906;2024-03-29T03:20:55;10.60;93.30
42031;DHT22;27709;52.036;5.906;2024-03-29T03:23:23;10.60;93.40
42031;DHT22;27709;52.036;5.906;2024-03-29T03:25:59;10.50;93.30
42031;DHT22;27709;52.036;5.906;2024-03-29T03:28:25;10.50;93.40
42031;DHT22;27709;52.036;5.906;2024-03-29T03:30:52;10.50;93.60
42031;DHT22;27709;52.036;5.906;2024-03-29T03:33:19;10.50;93.80
42031;DHT22;27709;52.036;5.906;2024-03-29T03:35:45;10.50;93.60
42031;DHT22;27709;52.036;5.906;2024-03-29T03:38:13;10.50;93.70
42031;DHT22;27709;52.036;5.906;2024-03-29T03:40:39;10.50;93.40
42031;DHT22;27709;52.036;5.906;2024-03-29T03:43:06;10.50;93.80
42031;DHT22;27709;52.036;5.906;2024-03-29T03:45:39;10.50;93.80
42031;DHT22;27709;52.036;5.906;2024-03-29T03:48:09;10.50;93.50
42031;DHT22;27709;52.036;5.906;2024-03-29T03:50:39;10.50;93.70
42031;DHT22;27709;52.036;5.906;2024-03-29T03:53:06;10.60;93.90
42031;DHT22;27709;52.036;5.906;2024-03-29T03:55:36;10.60;93.90
42031;DHT22;27709;52.036;5.906;2024-03-29T03:58:02;10.60;93.70
42031;DHT22;27709;52.036;5.906;2024-03-29T04:00:28;10.70;93.80
42031;DHT22;27709;52.036;5.906;2024-03-29T04:02:54;10.70;94.00
42031;DHT22;27709;52.036;5.906;2024-03-29T04:05:20;10.70;94.10
42031;DHT22;27709;52.036;5.906;2024-03-29T04:07:46;10.70;93.90
42031;DHT22;27709;52.036;5.906;2024-03-29T04:10:12;10.70;94.00
42031;DHT22;27709;52.036;5.906;2024-03-29T04:12:38;10.70;94.20
42031;DHT22;27709;52.036;5.906;2024-03-29T04:15:09;10.70;94.30
42031;DHT22;27709;52.036;5.906;2024-03-29T04:17:35;10.70;94.50
42031;DHT22;27709;52.036;5.906;2024-03-29T04:20:01;10.70;94.90
42031;DHT22;27709;52.036;5.906;2024-03-29T04:22:30;10.70;95.00
42031;DHT22;27709;52.036;5.906;2024-03-29T04:24:56;10.70;95.20
42031;DHT22;27709;52.036;5.906;2024-03-29T04:27:22;10.60;95.50
42031;DHT22;27709;52.036;5.906;2024-03-29T04:29:51;10.60;95.70
42031;DHT22;27709;52.036;5.906;2024-03-29T04:32:17;10.70;96.10
42031;DHT22;27709;52.036;5.906;2024-03-29T04:34:42;10.70;96.20
42031;DHT22;27709;52.036;5.906;2024-03-29T04:37:08;10.60;96.30
42031;DHT22;27709;52.036;5.906;2024-03-29T04:39:33;10.50;96.70
42031;DHT22;27709;52.036;5.906;2024-03-29T04:41:59;10.50;96.90
42031;DHT22;27709;52.036;5.906;2024-03-29T04:44:26;10.40;97.10
42031;DHT22;27709;52.036;5.906;2024-03-29T04:46:51;10.40;97.00
42031;DHT22;27709;52.036;5.906;2024-03-29T04:49:23;10.50;96.80
42031;DHT22;27709;52.036;5.906;2024-03-29T04:51:56;10.50;96.80
42031;DHT22;27709;52.036;5.906;2024-03-29T04:54:21;10.50;97.00
42031;DHT22;27709;52.036;5.906;2024-03-29T04:56:47;10.50;97.10
42031;DHT22;27709;52.036;5.906;2024-03-29T04:59:12;10.50;97.40
42031;DHT22;27709;52.036;5.906;2024-03-29T05:01:42;10.50;97.60
42031;DHT22;27709;52.036;5.906;2024-03-29T05:04:09;10.50;97.80
42031;DHT22;27709;52.036;5.906;2024-03-29T05:06:35;10.40;98.00
42031;DHT22;27709;52.036;5.906;2024-03-29T05:09:01;10.50;98.30
42031;DHT22;27709;52.036;5.906;2024-03-29T05:11:26;10.40;98.40
42031;DHT22;27709;52.036;5.906;2024-03-29T05:13:52;10.40;98.70
42031;DHT22;27709;52.036;5.906;2024-03-29T05:16:18;10.40;98.90
42031;DHT22;27709;52.036;5.906;2024-03-29T05:18:47;10.30;99.10
42031;DHT22;27709;52.036;5.906;2024-03-29T05:21:14;10.40;99.30
42031;DHT22;27709;52.036;5.906;2024-03-29T05:23:41;10.30;99.60
42031;DHT22;27709;52.036;5.906;2024-03-29T05:26:07;10.30;99.90
42031;DHT22;27709;52.036;5.906;2024-03-29T05:28:34;10.30;99.90
42031;DHT22;27709;52.036;5.906;2024-03-29T05:31:13;10.20;99.90
42031;DHT22;27709;52.036;5.906;2024-03-29T05:33:41;10.10;99.90
42031;DHT22;27709;52.036;5.906;2024-03-29T05:36:07;10.10;99.90
42031;DHT22;27709;52.036;5.906;2024-03-29T05:38:36;10.00;99.90
42031;DHT22;27709;52.036;5.906;2024-03-29T05:41:03;10.00;99.90
42031;DHT22;27709;52.036;5.906;2024-03-29T05:43:31;10.00;99.90
42031;DHT22;27709;52.036;5.906;2024-03-29T05:45:57;9.90;99.90
42031;DHT22;27709;52.036;5.906;2024-03-29T05:48:23;9.90;99.90
42031;DHT22;27709;52.036;5.906;2024-03-29T05:50:49;9.90;99.90
42031;DHT22;27709;52.036;5.906;2024-03-29T05:53:14;9.90;99.90
42031;DHT22;27709;52.036;5.906;2024-03-29T05:55:40;9.90;99.90
42031;DHT22;27709;52.036;5.906;2024-03-29T05:58:06;9.90;99.90
42031;DHT22;27709;52.036;5.906;2024-03-29T06:00:35;9.90;99.90
42031;DHT22;27709;52.036;5.906;2024-03-29T06:03:01;10.00;99.90
42031;DHT22;27709;52.036;5.906;2024-03-29T06:05:29;9.90;99.90
42031;DHT22;27709;52.036;5.906;2024-03-29T06:07:55;9.90;99.90
42031;DHT22;27709;52.036;5.906;2024-03-29T06:10:21;9.90;99.90
42031;DHT22;27709;52.036;5.906;2024-03-29T06:12:48;9.90;99.90
42031;DHT22;27709;52.036;5.906;2024-03-29T06:15:14;9.90;99.90
42031;DHT22;27709;52.036;5.906;2024-03-29T06:17:58;9.90;99.90
42031;DHT22;27709;52.036;5.906;2024-03-29T06:20:25;9.90;99.90
42031;DHT22;27709;52.036;5.906;2024-03-29T06:22:52;9.90;99.90
42031;DHT22;27709;52.036;5.906;2024-03-29T06:25:18;10.00;99.90
42031;DHT22;27709;52.036;5.906;2024-03-29T06:27:43;10.00;99.90
42031;DHT22;27709;52.036;5.906;2024-03-29T06:30:13;10.00;99.90
42031;DHT22;27709;52.036;5.906;2024-03-29T06:32:39;10.00;99.90
42031;DHT22;27709;52.036;5.906;2024-03-29T06:35:05;10.00;99.90
42031;DHT22;27709;52.036;5.906;2024-03-29T06:37:31;10.00;99.90
42031;DHT22;27709;52.036;5.906;2024-03-29T06:39:57;10.00;99.90
42031;DHT22;27709;52.036;5.906;2024-03-29T06:42:22;10.00;99.90
42031;DHT22;27709;52.036;5.906;2024-03-29T06:44:48;10.00;99.90
42031;DHT22;27709;52.036;5.906;2024-03-29T06:47:14;10.00;99.90
42031;DHT22;27709;52.036;5.906;2024-03-29T06:49:39;10.00;99.90
42031;DHT22;27709;52.036;5.906;2024-03-29T06:52:05;10.00;99.90
42031;DHT22;27709;52.036;5.906;2024-03-29T06:54:31;10.00;99.90
42031;DHT22;27709;52.036;5.906;2024-03-29T06:56:58;10.00;99.90
42031;DHT22;27709;52.036;5.906;2024-03-29T06:59:24;9.90;99.90
42031;DHT22;27709;52.036;5.906;2024-03-29T07:01:50;9.90;99.90
42031;DHT22;27709;52.036;5.906;2024-03-29T07:04:23;10.00;99.90
42031;DHT22;27709;52.036;5.906;2024-03-29T07:06:49;9.90;99.90
42031;DHT22;27709;52.036;5.906;2024-03-29T07:09:18;9.80;99.90
42031;DHT22;27709;52.036;5.906;2024-03-29T07:11:48;9.90;99.90
42031;DHT22;27709;52.036;5.906;2024-03-29T07:14:17;9.80;99.90
42031;DHT22;27709;52.036;5.906;2024-03-29T07:16:43;9.90;99.90
42031;DHT22;27709;52.036;5.906;2024-03-29T07:19:10;9.90;99.90
42031;DHT22;27709;52.036;5.906;2024-03-29T07:21:47;10.00;99.90
42031;DHT22;27709;52.036;5.906;2024-03-29T07:24:12;10.00;99.90
42031;DHT22;27709;52.036;5.906;2024-03-29T07:26:39;10.00;99.90
42031;DHT22;27709;52.036;5.906;2024-03-29T07:29:05;10.00;99.90
42031;DHT22;27709;52.036;5.906;2024-03-29T07:31:32;10.00;99.90
42031;DHT22;27709;52.036;5.906;2024-03-29T07:33:59;10.10;99.90
42031;DHT22;27709;52.036;5.906;2024-03-29T07:36:24;10.10;99.90
42031;DHT22;27709;52.036;5.906;2024-03-29T07:38:52;10.10;99.90
42031;DHT22;27709;52.036;5.906;2024-03-29T07:41:17;10.20;99.90
42031;DHT22;27709;52.036;5.906;2024-03-29T07:43:54;10.30;99.90
42031;DHT22;27709;52.036;5.906;2024-03-29T07:46:22;10.40;99.90
42031;DHT22;27709;52.036;5.906;2024-03-29T07:48:49;10.40;99.90
42031;DHT22;27709;52.036;5.906;2024-03-29T07:51:14;10.50;99.90
42031;DHT22;27709;52.036;5.906;2024-03-29T07:53:40;10.50;99.90
42031;DHT22;27709;52.036;5.906;2024-03-29T07:56:06;10.60;99.90
42031;DHT22;27709;52.036;5.906;2024-03-29T07:58:31;10.70;99.90
42031;DHT22;27709;52.036;5.906;2024-03-29T08:00:57;10.60;99.90
42031;DHT22;27709;52.036;5.906;2024-03-29T08:03:23;10.50;99.90
42031;DHT22;27709;52.036;5.906;2024-03-29T08:06:14;10.50;99.90
42031;DHT22;27709;52.036;5.906;2024-03-29T08:08:43;10.60;99.90
42031;DHT22;27709;52.036;5.906;2024-03-29T08:11:09;10.50;99.90
42031;DHT22;27709;52.036;5.906;2024-03-29T08:13:35;10.50;99.90
42031;DHT22;27709;52.036;5.906;2024-03-29T08:16:01;10.50;99.90
42031;DHT22;27709;52.036;5.906;2024-03-29T08:18:28;10.60;99.90
42031;DHT22;27709;52.036;5.906;2024-03-29T08:20:54;10.70;99.90
42031;DHT22;27709;52.036;5.906;2024-03-29T08:23:21;10.70;99.90
42031;DHT22;27709;52.036;5.906;2024-03-29T08:25:50;10.70;99.90
42031;DHT22;27709;52.036;5.906;2024-03-29T08:28:20;10.70;99.90
42031;DHT22;27709;52.036;5.906;2024-03-29T08:30:46;10.70;99.90
42031;DHT22;27709;52.036;5.906;2024-03-29T08:33:11;10.80;99.90
42031;DHT22;27709;52.036;5.906;2024-03-29T08:35:37;10.90;99.90
42031;DHT22;27709;52.036;5.906;2024-03-29T08:38:04;11.00;99.90
42031;DHT22;27709;52.036;5.906;2024-03-29T08:40:30;10.90;99.90
42031;DHT22;27709;52.036;5.906;2024-03-29T08:42:59;10.90;99.90
42031;DHT22;27709;52.036;5.906;2024-03-29T08:45:25;11.00;99.90
42031;DHT22;27709;52.036;5.906;2024-03-29T08:47:51;11.00;99.90
42031;DHT22;27709;52.036;5.906;2024-03-29T08:50:18;11.10;99.90
42031;DHT22;27709;52.036;5.906;2024-03-29T08:52:44;11.30;99.90
42031;DHT22;27709;52.036;5.906;2024-03-29T08:55:10;11.50;99.90
42031;DHT22;27709;52.036;5.906;2024-03-29T08:57:42;11.60;99.90
42031;DHT22;27709;52.036;5.906;2024-03-29T09:00:08;11.70;99.90
42031;DHT22;27709;52.036;5.906;2024-03-29T09:02:34;11.80;99.90
42031;DHT22;27709;52.036;5.906;2024-03-29T09:05:00;12.00;99.90
42031;DHT22;27709;52.036;5.906;2024-03-29T09:07:30;12.40;99.90
42031;DHT22;27709;52.036;5.906;2024-03-29T09:10:07;12.90;99.90
42031;DHT22;27709;52.036;5.906;2024-03-29T09:12:35;12.90;99.90
42031;DHT22;27709;52.036;5.906;2024-03-29T09:15:01;12.80;99.90
42031;DHT22;27709;52.036;5.906;2024-03-29T09:17:31;13.00;99.90
42031;DHT22;27709;52.036;5.906;2024-03-29T09:19:59;13.10;99.90
42031;DHT22;27709;52.036;5.906;2024-03-29T09:22:54;13.20;99.90
42031;DHT22;27709;52.036;5.906;2024-03-29T09:25:40;13.30;99.90
42031;DHT22;27709;52.036;5.906;2024-03-29T09:28:06;13.20;99.90
42031;DHT22;27709;52.036;5.906;2024-03-29T09:30:35;13.20;99.90
42031;DHT22;27709;52.036;5.906;2024-03-29T09:33:01;13.40;99.90
42031;DHT22;27709;52.036;5.906;2024-03-29T09:35:28;14.50;99.90
42031;DHT22;27709;52.036;5.906;2024-03-29T09:37:54;15.90;99.50
42031;DHT22;27709;52.036;5.906;2024-03-29T09:40:26;16.80;97.00
42031;DHT22;27709;52.036;5.906;2024-03-29T09:42:52;17.30;97.10
42031;DHT22;27709;52.036;5.906;2024-03-29T09:45:19;17.90;97.00
42031;DHT22;27709;52.036;5.906;2024-03-29T09:47:49;18.20;94.70
42031;DHT22;27709;52.036;5.906;2024-03-29T09:50:17;17.90;94.30
42031;DHT22;27709;52.036;5.906;2024-03-29T09:52:46;18.00;95.10
42031;DHT22;27709;52.036;5.906;2024-03-29T09:55:16;18.30;94.40
42031;DHT22;27709;52.036;5.906;2024-03-29T09:57:45;18.20;93.50
42031;DHT22;27709;52.036;5.906;2024-03-29T10:00:12;17.80;93.50
42031;DHT22;27709;52.036;5.906;2024-03-29T10:02:38;17.30;94.30
42031;DHT22;27709;52.036;5.906;2024-03-29T10:05:07;16.90;95.10
42031;DHT22;27709;52.036;5.906;2024-03-29T10:07:35;16.70;96.00
42031;DHT22;27709;52.036;5.906;2024-03-29T10:10:08;16.70;96.00
42031;DHT22;27709;52.036;5.906;2024-03-29T10:12:34;16.60;95.70
42031;DHT22;27709;52.036;5.906;2024-03-29T10:15:06;16.40;96.00
42031;DHT22;27709;52.036;5.906;2024-03-29T10:17:44;16.40;96.10
42031;DHT22;27709;52.036;5.906;2024-03-29T10:20:10;16.20;95.60
42031;DHT22;27709;52.036;5.906;2024-03-29T10:22:42;15.90;95.90
42031;DHT22;27709;52.036;5.906;2024-03-29T10:25:12;15.80;96.40
42031;DHT22;27709;52.036;5.906;2024-03-29T10:27:39;15.60;96.30
42031;DHT22;27709;52.036;5.906;2024-03-29T10:30:09;15.50;96.40
42031;DHT22;27709;52.036;5.906;2024-03-29T10:32:39;15.60;96.50
42031;DHT22;27709;52.036;5.906;2024-03-29T10:35:05;15.80;96.00
42031;DHT22;27709;52.036;5.906;2024-03-29T10:37:31;16.10;96.50
42031;DHT22;27709;52.036;5.906;2024-03-29T10:40:01;16.40;95.80
42031;DHT22;27709;52.036;5.906;2024-03-29T10:42:29;16.80;96.00
42031;DHT22;27709;52.036;5.906;2024-03-29T10:44:55;17.00;95.00
42031;DHT22;27709;52.036;5.906;2024-03-29T10:47:23;17.10;94.70
42031;DHT22;27709;52.036;5.906;2024-03-29T10:49:50;17.10;94.70
42031;DHT22;27709;52.036;5.906;2024-03-29T10:52:21;17.10;94.10
42031;DHT22;27709;52.036;5.906;2024-03-29T10:54:48;17.00;93.60
42031;DHT22;27709;52.036;5.906;2024-03-29T10:57:27;16.90;93.90
42031;DHT22;27709;52.036;5.906;2024-03-29T11:00:11;16.80;94.90
42031;DHT22;27709;52.036;5.906;2024-03-29T11:05:33;16.90;94.60
42031;DHT22;27709;52.036;5.906;2024-03-29T11:08:02;16.90;94.30
42031;DHT22;27709;52.036;5.906;2024-03-29T11:10:44;16.80;94.20
42031;DHT22;27709;52.036;5.906;2024-03-29T11:15:44;16.80;94.10
42031;DHT22;27709;52.036;5.906;2024-03-29T11:18:13;16.80;94.40
42031;DHT22;27709;52.036;5.906;2024-03-29T11:20:46;16.90;94.50
42031;DHT22;27709;52.036;5.906;2024-03-29T11:23:24;17.00;94.00
42031;DHT22;27709;52.036;5.906;2024-03-29T11:25:51;17.00;93.80
42031;DHT22;27709;52.036;5.906;2024-03-29T11:28:29;17.00;93.60
42031;DHT22;27709;52.036;5.906;2024-03-29T11:31:03;17.20;94.20
42031;DHT22;27709;52.036;5.906;2024-03-29T11:36:20;17.60;94.00
42031;DHT22;27709;52.036;5.906;2024-03-29T11:38:57;17.60;92.90
42031;DHT22;27709;52.036;5.906;2024-03-29T11:41:29;17.40;92.60
42031;DHT22;27709;52.036;5.906;2024-03-29T11:43:55;17.10;92.40
42031;DHT22;27709;52.036;5.906;2024-03-29T11:46:23;16.80;93.10
42031;DHT22;27709;52.036;5.906;2024-03-29T11:48:49;16.50;93.20
42031;DHT22;27709;52.036;5.906;2024-03-29T11:51:21;16.50;93.40
42031;DHT22;27709;52.036;5.906;2024-03-29T11:53:49;16.60;93.20
42031;DHT22;27709;52.036;5.906;2024-03-29T11:56:18;16.70;92.90
42031;DHT22;27709;52.036;5.906;2024-03-29T11:58:45;16.80;92.70
42031;DHT22;27709;52.036;5.906;2024-03-29T12:01:11;16.90;92.90
42031;DHT22;27709;52.036;5.906;2024-03-29T12:03:41;17.10;92.30
42031;DHT22;27709;52.036;5.906;2024-03-29T12:06:10;17.10;92.50
42031;DHT22;27709;52.036;5.906;2024-03-29T12:08:41;17.00;92.20
42031;DHT22;27709;52.036;5.906;2024-03-29T12:11:08;16.90;92.30
42031;DHT22;27709;52.036;5.906;2024-03-29T12:13:34;17.00;92.50
42031;DHT22;27709;52.036;5.906;2024-03-29T12:16:00;17.20;92.80
42031;DHT22;27709;52.036;5.906;2024-03-29T12:18:27;17.40;92.50
42031;DHT22;27709;52.036;5.906;2024-03-29T12:20:58;17.30;92.30
42031;DHT22;27709;52.036;5.906;2024-03-29T12:23:24;17.20;91.90
42031;DHT22;27709;52.036;5.906;2024-03-29T12:25:53;17.10;92.40
42031;DHT22;27709;52.036;5.906;2024-03-29T12:28:21;17.20;92.60
42031;DHT22;27709;52.036;5.906;2024-03-29T12:30:48;17.20;91.70
42031;DHT22;27709;52.036;5.906;2024-03-29T12:35:48;17.20;91.50
42031;DHT22;27709;52.036;5.906;2024-03-29T12:38:17;17.30;92.10
42031;DHT22;27709;52.036;5.906;2024-03-29T12:40:48;17.40;91.70
42031;DHT22;27709;52.036;5.906;2024-03-29T12:43:15;17.40;91.20
42031;DHT22;27709;52.036;5.906;2024-03-29T12:45:44;17.40;90.70
42031;DHT22;27709;52.036;5.906;2024-03-29T12:48:21;17.30;90.80
42031;DHT22;27709;52.036;5.906;2024-03-29T12:50:49;17.40;91.20
42031;DHT22;27709;52.036;5.906;2024-03-29T12:53:15;17.50;90.80
42031;DHT22;27709;52.036;5.906;2024-03-29T12:55:42;17.70;91.30
42031;DHT22;27709;52.036;5.906;2024-03-29T12:58:14;17.70;90.50
42031;DHT22;27709;52.036;5.906;2024-03-29T13:00:41;17.70;90.40
42031;DHT22;27709;52.036;5.906;2024-03-29T13:03:07;17.80;90.20
42031;DHT22;27709;52.036;5.906;2024-03-29T13:05:35;17.90;90.10
42031;DHT22;27709;52.036;5.906;2024-03-29T13:08:07;17.90;90.20
42031;DHT22;27709;52.036;5.906;2024-03-29T13:10:42;17.90;90.30
42031;DHT22;27709;52.036;5.906;2024-03-29T13:13:09;18.00;90.70
42031;DHT22;27709;52.036;5.906;2024-03-29T13:15:37;18.00;90.30
42031;DHT22;27709;52.036;5.906;2024-03-29T13:18:05;18.00;90.50
42031;DHT22;27709;52.036;5.906;2024-03-29T13:20:32;18.00;90.20
42031;DHT22;27709;52.036;5.906;2024-03-29T13:22:58;18.10;90.50
42031;DHT22;27709;52.036;5.906;2024-03-29T13:25:24;18.20;90.20
42031;DHT22;27709;52.036;5.906;2024-03-29T13:27:52;18.30;88.90
42031;DHT22;27709;52.036;5.906;2024-03-29T13:30:23;18.20;88.90
42031;DHT22;27709;52.036;5.906;2024-03-29T13:32:52;18.30;88.30
42031;DHT22;27709;52.036;5.906;2024-03-29T13:35:19;18.30;88.30
42031;DHT22;27709;52.036;5.906;2024-03-29T13:37:47;18.30;87.50
42031;DHT22;27709;52.036;5.906;2024-03-29T13:40:20;18.20;87.00
42031;DHT22;27709;52.036;5.906;2024-03-29T13:42:46;18.10;87.00
42031;DHT22;27709;52.036;5.906;2024-03-29T13:45:11;18.00;87.70
42031;DHT22;27709;52.036;5.906;2024-03-29T13:47:38;18.10;88.20
42031;DHT22;27709;52.036;5.906;2024-03-29T13:50:08;18.20;88.50
42031;DHT22;27709;52.036;5.906;2024-03-29T13:52:36;18.40;87.80
42031;DHT22;27709;52.036;5.906;2024-03-29T13:55:02;18.30;85.60
42031;DHT22;27709;52.036;5.906;2024-03-29T13:57:31;18.20;86.40
42031;DHT22;27709;52.036;5.906;2024-03-29T14:00:00;18.20;86.20
42031;DHT22;27709;52.036;5.906;2024-03-29T14:02:26;18.20;86.40
42031;DHT22;27709;52.036;5.906;2024-03-29T14:04:54;18.10;87.50
42031;DHT22;27709;52.036;5.906;2024-03-29T14:07:19;18.00;86.40
42031;DHT22;27709;52.036;5.906;2024-03-29T14:09:45;18.00;86.90
42031;DHT22;27709;52.036;5.906;2024-03-29T14:12:11;18.10;86.20
42031;DHT22;27709;52.036;5.906;2024-03-29T14:14:37;18.00;86.10
42031;DHT22;27709;52.036;5.906;2024-03-29T14:17:03;18.00;86.00
42031;DHT22;27709;52.036;5.906;2024-03-29T14:19:31;17.90;85.90
42031;DHT22;27709;52.036;5.906;2024-03-29T14:21:59;18.00;86.50
42031;DHT22;27709;52.036;5.906;2024-03-29T14:24:25;18.00;86.80
42031;DHT22;27709;52.036;5.906;2024-03-29T14:26:51;18.10;86.10
42031;DHT22;27709;52.036;5.906;2024-03-29T14:29:19;18.00;85.50
42031;DHT22;27709;52.036;5.906;2024-03-29T14:31:48;17.90;85.60
42031;DHT22;27709;52.036;5.906;2024-03-29T14:34:13;17.90;86.60
42031;DHT22;27709;52.036;5.906;2024-03-29T14:36:39;18.00;87.20
42031;DHT22;27709;52.036;5.906;2024-03-29T14:39:05;18.10;87.30
42031;DHT22;27709;52.036;5.906;2024-03-29T14:41:31;18.20;87.30
42031;DHT22;27709;52.036;5.906;2024-03-29T14:43:57;18.30;87.10
42031;DHT22;27709;52.036;5.906;2024-03-29T14:46:23;18.40;86.20
42031;DHT22;27709;52.036;5.906;2024-03-29T14:48:49;18.40;85.70
42031;DHT22;27709;52.036;5.906;2024-03-29T14:51:16;18.30;84.80
42031;DHT22;27709;52.036;5.906;2024-03-29T14:53:41;18.10;84.30
42031;DHT22;27709;52.036;5.906;2024-03-29T14:56:13;18.10;85.40
42031;DHT22;27709;52.036;5.906;2024-03-29T14:58:39;18.00;84.70
42031;DHT22;27709;52.036;5.906;2024-03-29T15:01:05;17.90;84.90
42031;DHT22;27709;52.036;5.906;2024-03-29T15:03:31;17.90;85.90
42031;DHT22;27709;52.036;5.906;2024-03-29T15:05:56;17.80;84.90
42031;DHT22;27709;52.036;5.906;2024-03-29T15:08:22;17.80;85.90
42031;DHT22;27709;52.036;5.906;2024-03-29T15:10:59;17.80;85.30
42031;DHT22;27709;52.036;5.906;2024-03-29T15:13:25;17.80;85.70
42031;DHT22;27709;52.036;5.906;2024-03-29T15:15:57;17.80;86.00
42031;DHT22;27709;52.036;5.906;2024-03-29T15:18:23;17.80;86.70
42031;DHT22;27709;52.036;5.906;2024-03-29T15:20:59;17.80;85.20
42031;DHT22;27709;52.036;5.906;2024-03-29T15:23:26;17.80;85.50
42031;DHT22;27709;52.036;5.906;2024-03-29T15:25:53;17.70;86.00
42031;DHT22;27709;52.036;5.906;2024-03-29T15:28:23;17.80;85.70
42031;DHT22;27709;52.036;5.906;2024-03-29T15:31:11;17.80;86.00
42031;DHT22;27709;52.036;5.906;2024-03-29T15:33:38;17.80;86.00
42031;DHT22;27709;52.036;5.906;2024-03-29T15:36:04;17.70;85.20
42031;DHT22;27709;52.036;5.906;2024-03-29T15:38:29;17.60;85.20
42031;DHT22;27709;52.036;5.906;2024-03-29T15:40:57;17.60;86.20
42031;DHT22;27709;52.036;5.906;2024-03-29T15:43:24;17.60;86.50
42031;DHT22;27709;52.036;5.906;2024-03-29T15:45:49;17.70;85.30
42031;DHT22;27709;52.036;5.906;2024-03-29T15:48:15;17.70;85.20